sensor_id;sensor_type;location;lat;lon;timestamp;pressure;altitude;pressure_sealevel;temperature;humidity
4528;BME280;62320;51.520;6.818;2023-02-11T00:04:54;102957.94;;;6.91;95.38
4528;BME280;62320;51.520;6.818;2023-02-11T00:14:55;102966.47;;;6.90;95.28
4528;BME280;62320;51.520;6.818;2023-02-11T00:24:57;102946.03;;;6.93;95.39
4528;BME280;62320;51.520;6.818;2023-02-11T00:34:58;102959.06;;;6.96;95.03
4528;BME280;62320;51.520;6.818;2023-02-11T00:45:01;102953.91;;;6.96;95.13
4528;BME280;62320;51.520;6.818;2023-02-11T00:55:02;102928.34;;;6.99;95.48
4528;BME280;62320;51.520;6.818;2023-02-11T01:05:04;102951.50;;;6.99;94.93
4528;BME280;62320;51.520;6.818;2023-02-11T01:15:07;102939.44;;;6.98;94.82
4528;BME280;62320;51.520;6.818;2023-02-11T01:25:09;102943.63;;;6.96;95.43
4528;BME280;62320;51.520;6.818;2023-02-11T01:35:10;102959.13;;;6.97;95.43
4528;BME280;62320;51.520;6.818;2023-02-11T01:55:44;102917.91;;;6.96;94.85
4528;BME280;62320;51.520;6.818;2023-02-11T02:16:35;102921.22;;;6.93;94.75
4528;BME280;62320;51.520;6.818;2023-02-11T02:37:17;102901.34;;;6.91;95.11
4528;BME280;62320;51.520;6.818;2023-02-11T02:47:20;102899.50;;;6.88;95.06
4528;BME280;62320;51.520;6.818;2023-02-11T03:08:08;102856.41;;;6.83;94.82
4528;BME280;62320;51.520;6.818;2023-02-11T03:18:13;102879.31;;;6.78;95.24
4528;BME280;62320;51.520;6.818;2023-02-11T03:28:25;102881.91;;;6.78;95.33
4528;BME280;62320;51.520;6.818;2023-02-11T03:38:32;102903.34;;;6.79;95.49
4528;BME280;62320;51.520;6.818;2023-02-11T03:48:38;102888.88;;;6.81;95.68
4528;BME280;62320;51.520;6.818;2023-02-11T03:58:44;102874.84;;;6.74;96.28
4528;BME280;62320;51.520;6.818;2023-02-11T04:08:46;102875.63;;;6.73;95.97
4528;BME280;62320;51.520;6.818;2023-02-11T04:18:47;102874.75;;;6.73;95.65
4528;BME280;62320;51.520;6.818;2023-02-11T04:28:49;102882.41;;;6.71;96.15
4528;BME280;62320;51.520;6.818;2023-02-11T04:38:50;102913.91;;;6.67;95.66
4528;BME280;62320;51.520;6.818;2023-02-11T04:48:52;102903.69;;;6.69;96.41
4528;BME280;62320;51.520;6.818;2023-02-11T04:58:53;102880.63;;;6.70;96.93
4528;BME280;62320;51.520;6.818;2023-02-11T05:08:54;102886.59;;;6.69;96.85
4528;BME280;62320;51.520;6.818;2023-02-11T05:18:56;102884.00;;;6.69;97.75
4528;BME280;62320;51.520;6.818;2023-02-11T05:28:58;102874.69;;;6.71;97.54
4528;BME280;62320;51.520;6.818;2023-02-11T05:39:00;102875.41;;;6.69;97.25
4528;BME280;62320;51.520;6.818;2023-02-11T05:49:02;102869.38;;;6.68;97.58
4528;BME280;62320;51.520;6.818;2023-02-11T05:59:03;102857.25;;;6.66;98.20
4528;BME280;62320;51.520;6.818;2023-02-11T06:09:04;102874.41;;;6.65;97.55
4528;BME280;62320;51.520;6.818;2023-02-11T06:19:06;102877.91;;;6.67;97.77
4528;BME280;62320;51.520;6.818;2023-02-11T06:29:08;102877.03;;;6.67;97.64
4528;BME280;62320;51.520;6.818;2023-02-11T06:39:11;102866.53;;;6.62;98.21
4528;BME280;62320;51.520;6.818;2023-02-11T06:49:13;102883.72;;;6.63;98.19
4528;BME280;62320;51.520;6.818;2023-02-11T06:59:16;102890.53;;;6.63;97.79
4528;BME280;62320;51.520;6.818;2023-02-11T07:09:17;102887.16;;;6.64;98.29
4528;BME280;62320;51.520;6.818;2023-02-11T07:19:19;102890.53;;;6.63;98.11
4528;BME280;62320;51.520;6.818;2023-02-11T07:29:20;102905.16;;;6.64;98.13
4528;BME280;62320;51.520;6.818;2023-02-11T07:39:22;102907.66;;;6.62;98.13
4528;BME280;62320;51.520;6.818;2023-02-11T07:49:27;102919.13;;;6.69;98.78
4528;BME280;62320;51.520;6.818;2023-02-11T07:59:29;102913.31;;;6.73;98.71
4528;BME280;62320;51.520;6.818;2023-02-11T08:09:31;102917.72;;;6.75;98.95
4528;BME280;62320;51.520;6.818;2023-02-11T08:19:34;102941.19;;;6.81;98.96
4528;BME280;62320;51.520;6.818;2023-02-11T08:29:36;102945.19;;;6.92;99.35
4528;BME280;62320;51.520;6.818;2023-02-11T08:39:37;102947.03;;;6.95;99.10
4528;BME280;62320;51.520;6.818;2023-02-11T08:49:39;102952.28;;;6.98;98.59
4528;BME280;62320;51.520;6.818;2023-02-11T08:59:42;102947.38;;;7.02;99.75
4528;BME280;62320;51.520;6.818;2023-02-11T09:09:44;102966.66;;;7.10;99.76
4528;BME280;62320;51.520;6.818;2023-02-11T09:19:45;102964.31;;;7.15;99.54
4528;BME280;62320;51.520;6.818;2023-02-11T09:29:47;102980.25;;;7.26;100.00
4528;BME280;62320;51.520;6.818;2023-02-11T09:39:48;102989.25;;;7.34;99.81
4528;BME280;62320;51.520;6.818;2023-02-11T09:49:53;102996.31;;;7.38;98.99
4528;BME280;62320;51.520;6.818;2023-02-11T09:59:57;103000.94;;;7.45;99.55
4528;BME280;62320;51.520;6.818;2023-02-11T10:40:28;103026.56;;;7.96;99.44
4528;BME280;62320;51.520;6.818;2023-02-11T10:50:32;103031.06;;;8.00;99.80
4528;BME280;62320;51.520;6.818;2023-02-11T11:00:39;103039.00;;;8.05;99.70
4528;BME280;62320;51.520;6.818;2023-02-11T11:10:43;103049.31;;;8.05;99.45
4528;BME280;62320;51.520;6.818;2023-02-11T11:20:56;103062.34;;;8.08;100.00
4528;BME280;62320;51.520;6.818;2023-02-11T11:30:59;103057.41;;;8.12;100.00
4528;BME280;62320;51.520;6.818;2023-02-11T11:51:19;103043.38;;;8.25;99.52
4528;BME280;62320;51.520;6.818;2023-02-11T13:13:57;103018.13;;;8.74;99.67
4528;BME280;62320;51.520;6.818;2023-02-11T13:44:46;103037.31;;;8.99;99.43
4528;BME280;62320;51.520;6.818;2023-02-11T13:54:49;103017.53;;;9.00;99.49
4528;BME280;62320;51.520;6.818;2023-02-11T14:15:38;103004.53;;;9.17;99.46
4528;BME280;62320;51.520;6.818;2023-02-11T14:25:41;103009.59;;;9.16;98.54
4528;BME280;62320;51.520;6.818;2023-02-11T14:35:57;103003.75;;;9.20;99.13
4528;BME280;62320;51.520;6.818;2023-02-11T14:46:02;103002.94;;;9.21;98.85
4528;BME280;62320;51.520;6.818;2023-02-11T14:56:16;103020.31;;;9.25;98.73
4528;BME280;62320;51.520;6.818;2023-02-11T15:06:24;103020.44;;;9.28;98.10
4528;BME280;62320;51.520;6.818;2023-02-11T15:16:27;103026.69;;;9.33;98.11
4528;BME280;62320;51.520;6.818;2023-02-11T15:26:29;103021.53;;;9.33;98.29
4528;BME280;62320;51.520;6.818;2023-02-11T15:36:30;103034.34;;;9.31;98.57
4528;BME280;62320;51.520;6.818;2023-02-11T15:46:37;103033.69;;;9.36;98.47
4528;BME280;62320;51.520;6.818;2023-02-11T15:56:41;103045.75;;;9.37;98.56
4528;BME280;62320;51.520;6.818;2023-02-11T16:06:44;103034.53;;;9.36;98.00
4528;BME280;62320;51.520;6.818;2023-02-11T16:16:50;103047.56;;;9.39;97.74
4528;BME280;62320;51.520;6.818;2023-02-11T16:26:56;103056.84;;;9.34;97.81
4528;BME280;62320;51.520;6.818;2023-02-11T16:37:02;103069.88;;;9.37;98.10
4528;BME280;62320;51.520;6.818;2023-02-11T16:47:06;103090.34;;;9.32;98.59
4528;BME280;62320;51.520;6.818;2023-02-11T16:57:24;103087.56;;;9.28;97.79
4528;BME280;62320;51.520;6.818;2023-02-11T17:07:30;103096.88;;;9.24;98.25
4528;BME280;62320;51.520;6.818;2023-02-11T17:17:32;103101.91;;;9.21;97.76
4528;BME280;62320;51.520;6.818;2023-02-11T17:27:33;103102.88;;;9.23;97.73
4528;BME280;62320;51.520;6.818;2023-02-11T17:37:34;103100.03;;;9.17;98.05
4528;BME280;62320;51.520;6.818;2023-02-11T17:47:36;103112.84;;;9.16;98.19
4528;BME280;62320;51.520;6.818;2023-02-11T17:57:37;103121.28;;;9.12;98.37
4528;BME280;62320;51.520;6.818;2023-02-11T18:07:39;103142.63;;;9.08;98.35
4528;BME280;62320;51.520;6.818;2023-02-11T18:17:41;103155.53;;;9.08;98.86
4528;BME280;62320;51.520;6.818;2023-02-11T18:27:43;103153.75;;;9.07;98.34
4528;BME280;62320;51.520;6.818;2023-02-11T18:37:44;103155.44;;;9.06;98.89
4528;BME280;62320;51.520;6.818;2023-02-11T18:47:46;103163.34;;;9.09;98.66
4528;BME280;62320;51.520;6.818;2023-02-11T18:57:47;103171.91;;;9.08;98.30
4528;BME280;62320;51.520;6.818;2023-02-11T19:07:49;103180.38;;;9.06;98.38
4528;BME280;62320;51.520;6.818;2023-02-11T19:17:51;103195.69;;;9.01;99.06
4528;BME280;62320;51.520;6.818;2023-02-11T19:27:53;103196.41;;;8.99;98.54
4528;BME280;62320;51.520;6.818;2023-02-11T19:37:54;103204.16;;;8.99;98.46
4528;BME280;62320;51.520;6.818;2023-02-11T19:47:56;103215.38;;;8.99;98.34
4528;BME280;62320;51.520;6.818;2023-02-11T19:57:58;103222.69;;;8.90;99.17
4528;BME280;62320;51.520;6.818;2023-02-11T20:07:59;103231.19;;;8.88;99.02
4528;BME280;62320;51.520;6.818;2023-02-11T20:18:01;103243.03;;;8.84;99.22
4528;BME280;62320;51.520;6.818;2023-02-11T20:28:02;103242.13;;;8.84;99.82
4528;BME280;62320;51.520;6.818;2023-02-11T20:38:04;103247.19;;;8.81;98.67
4528;BME280;62320;51.520;6.818;2023-02-11T20:48:06;103268.63;;;8.80;99.26
4528;BME280;62320;51.520;6.818;2023-02-11T20:58:07;103261.78;;;8.80;99.12
4528;BME280;62320;51.520;6.818;2023-02-11T21:08:09;103289.78;;;8.73;98.78
4528;BME280;62320;51.520;6.818;2023-02-11T21:18:11;103298.13;;;8.67;98.80
4528;BME280;62320;51.520;6.818;2023-02-11T21:28:13;103289.50;;;8.67;98.75
4528;BME280;62320;51.520;6.818;2023-02-11T21:38:15;103285.06;;;8.64;99.27
4528;BME280;62320;51.520;6.818;2023-02-11T21:48:17;103298.69;;;8.61;99.11
4528;BME280;62320;51.520;6.818;2023-02-11T21:58:19;103297.22;;;8.67;99.32
4528;BME280;62320;51.520;6.818;2023-02-11T22:08:20;103292.06;;;8.67;99.60
4528;BME280;62320;51.520;6.818;2023-02-11T22:18:21;103291.13;;;8.65;99.95
4528;BME280;62320;51.520;6.818;2023-02-11T22:28:24;103298.03;;;8.66;99.92
4528;BME280;62320;51.520;6.818;2023-02-11T22:38:30;103298.84;;;8.65;99.87
4528;BME280;62320;51.520;6.818;2023-02-11T22:48:33;103302.16;;;8.62;100.00
4528;BME280;62320;51.520;6.818;2023-02-11T22:58:35;103310.69;;;8.61;100.00
4528;BME280;62320;51.520;6.818;2023-02-11T23:08:38;103310.56;;;8.58;100.00
4528;BME280;62320;51.520;6.818;2023-02-11T23:18:41;103318.44;;;8.61;100.00
4528;BME280;62320;51.520;6.818;2023-02-11T23:28:44;103327.06;;;8.61;100.00
4528;BME280;62320;51.520;6.818;2023-02-11T23:38:46;103337.09;;;8.55;100.00
4528;BME280;62320;51.520;6.818;2023-02-11T23:48:49;103342.25;;;8.55;100.00
4528;BME280;62320;51.520;6.818;2023-02-11T23:58:53;103341.13;;;8.50;100.00
